Live from Altenrhein
LIVE
LSZR 300820Z 05004KT 010V080 9999 BKN050 16/13 Q1008 NOSIG RMK E

People´s C-Office:

T: +41 (0)71 858 51 65

E: c-office@peoples.ch

Handling request

Airport Altenrhein LSZR

Handling request web form:

 

                                               
Company *   Address *   Phone *
   
Fax *   E-Mail *   SITA *
   
Registration *   Aircraft Type *   Mtow in Kgs *
   

Arrival Flight number *   Arrival date *   Arrival from (ICAO) *   Arrival time UTC *   No. of PAX arriving *
      : 
Departure Flight number *   Departure Date *   Departure to (ICAO) *   Departure time UTC *   No. of PAX departing *
      : 

Type of operation *    
   

Additional handling services
  
  

Crew hotel (descriptions at the pdf above)   Limousine Transfer to (Description at the pdf above):
 
Taxi transfer to:   Catering (Catering order form above)
 

Special requests / Remarks